Dades meteomassalio
Diari Summary for Febrer 11, 2018 Units:  English    Metric   Both
« Previous Day
Next Day »
Diari Semanal Mensual Anual Personalitzat
  Maxima: Minima: Mijana:
Temperatura: TemperatureC °F 0.0 °F 9.6 °F
Rosada: DewpointC °F -2.4 °F 4.7 °F
Humitat: Humidity % 57 % 72 %
Velocitat del vent: WindSpeedKMH mph 0.0 mph 18.1 mph
Racha vent: WindSpeedGustKMH mph - -
Vent:- - NW
Pressio: PressurehPa in 1018.5 in -
Pluja: 0.0 in    
Historical Graphs
 
 
Tabular Data for Febrer 11, 2018
Time Temperature Dew Point Pressure Wind Wind Speed Wind Gust Humidity Rainfall Rate (Hourly) solar Conditions
TemperatureC °F DewpointC °F PressurehPa in Calm     Humidity % HourlyPrecipMM in SolarRadiationWatts/m^2 W/m2 Conditions
00:04 3.9 °F 0.8 °F 1022.9 in WNW 18.5 mph 18.5 mph 80 % 0.0 in 0.0 W/m2 CLR
00:09 3.9 °F 0.8 °F 1022.9 in WNW 18.5 mph 18.5 mph 80 % 0.0 in 0.0 W/m2 CLR
00:14 3.9 °F 0.8 °F 1022.9 in WNW 13.0 mph 13.0 mph 80 % 0.0 in 0.0 W/m2 CLR
00:19 3.9 °F 0.8 °F 1022.9 in WNW 14.8 mph 14.8 mph 80 % 0.0 in 0.0 W/m2 CLR
00:24 3.3 °F 0.2 °F 1022.9 in NW 14.8 mph 14.8 mph 80 % 0.0 in 0.0 W/m2 CLR
00:29 3.3 °F 0.2 °F 1023.2 in WNW 11.1 mph 11.1 mph 80 % 0.0 in 0.0 W/m2 CLR
00:34 3.3 °F 0.4 °F 1023.2 in West 11.1 mph 11.1 mph 81 % 0.0 in 0.0 W/m2 CLR
00:39 3.3 °F 0.4 °F 1023.2 in West 7.4 mph 7.4 mph 81 % 0.0 in 0.0 W/m2 CLR
00:44 2.8 °F -0.2 °F 1022.9 in WNW 9.3 mph 9.3 mph 81 % 0.0 in 0.0 W/m2 CLR
00:49 2.8 °F 0.0 °F 1022.9 in WNW 11.1 mph 11.1 mph 82 % 0.0 in 0.0 W/m2 CLR
00:54 2.2 °F -0.6 °F 1022.9 in WNW 6.4 mph 6.4 mph 82 % 0.0 in 0.0 W/m2 CLR
00:59 2.2 °F -0.4 °F 1023.2 in West 11.1 mph 11.1 mph 83 % 0.0 in 0.0 W/m2 CLR
01:04 2.2 °F -0.4 °F 1022.9 in West 7.4 mph 7.4 mph 83 % 0.0 in 0.0 W/m2 CLR
01:09 2.2 °F -0.4 °F 1022.9 in West 7.4 mph 7.4 mph 83 % 0.0 in 0.0 W/m2 CLR
01:14 1.7 °F -0.9 °F 1022.9 in West 5.6 mph 5.6 mph 83 % 0.0 in 0.0 W/m2 CLR
01:19 1.7 °F -0.9 °F 1022.9 in WNW 9.3 mph 9.3 mph 83 % 0.0 in 0.0 W/m2 CLR
01:24 1.1 °F -1.4 °F 1022.9 in West 5.6 mph 5.6 mph 83 % 0.0 in 0.0 W/m2 CLR
01:29 1.1 °F -1.3 °F 1022.9 in West 11.1 mph 11.1 mph 84 % 0.0 in 0.0 W/m2 CLR
01:34 1.1 °F -1.3 °F 1022.9 in WNW 9.3 mph 9.3 mph 84 % 0.0 in 0.0 W/m2 CLR
01:39 0.6 °F -1.8 °F 1022.9 in WNW 11.3 mph 11.3 mph 84 % 0.0 in 0.0 W/m2 CLR
01:44 0.6 °F -1.8 °F 1022.6 in West 11.1 mph 11.1 mph 84 % 0.0 in 0.0 W/m2 CLR
01:49 0.0 °F -2.4 °F 1022.6 in West 13.0 mph 13.0 mph 84 % 0.0 in 0.0 W/m2 CLR
01:54 0.0 °F -2.4 °F 1022.6 in West 16.7 mph 16.7 mph 84 % 0.0 in 0.0 W/m2 CLR
01:59 0.0 °F -2.4 °F 1022.6 in West 11.1 mph 11.1 mph 84 % 0.0 in 0.0 W/m2 CLR
02:04 0.0 °F -2.4 °F 1022.6 in West 13.0 mph 13.0 mph 84 % 0.0 in 0.0 W/m2 CLR
02:09 0.0 °F -2.4 °F 1022.6 in West 14.8 mph 14.8 mph 84 % 0.0 in 0.0 W/m2 CLR
02:15 0.0 °F -2.4 °F 1022.6 in West 11.3 mph 11.3 mph 84 % 0.0 in 0.0 W/m2 CLR
02:20 0.0 °F -2.4 °F 1022.6 in West 7.4 mph 7.4 mph 84 % 0.0 in 0.0 W/m2 CLR
02:25 1.1 °F -1.3 °F 1022.2 in West 14.8 mph 14.8 mph 84 % 0.0 in 0.0 W/m2 CLR
02:30 1.1 °F -1.3 °F 1022.2 in WNW 7.4 mph 7.4 mph 84 % 0.0 in 0.0 W/m2 CLR
02:35 1.7 °F -0.6 °F 1022.2 in NW 20.4 mph 20.4 mph 85 % 0.0 in 0.0 W/m2 CLR
02:40 2.2 °F -0.2 °F 1022.2 in NW 11.1 mph 11.1 mph 84 % 0.0 in 0.0 W/m2 CLR
02:45 2.2 °F -0.4 °F 1022.2 in WNW 13.0 mph 13.0 mph 83 % 0.0 in 0.0 W/m2 CLR
02:50 3.3 °F 0.6 °F 1022.2 in WNW 13.0 mph 13.0 mph 82 % 0.0 in 0.0 W/m2 CLR
02:55 3.3 °F 0.6 °F 1022.2 in WNW 16.7 mph 16.7 mph 82 % 0.0 in 0.0 W/m2 CLR
03:00 3.9 °F 0.9 °F 1022.2 in NW 14.8 mph 14.8 mph 81 % 0.0 in 0.0 W/m2 CLR
03:05 3.9 °F 0.9 °F 1021.9 in WNW 16.7 mph 16.7 mph 81 % 0.0 in 0.0 W/m2 CLR
03:10 4.4 °F 1.4 °F 1021.9 in WNW 14.8 mph 14.8 mph 81 % 0.0 in 0.0 W/m2 CLR
03:15 5.0 °F 1.8 °F 1021.9 in WNW 13.0 mph 13.0 mph 80 % 0.0 in 0.0 W/m2 CLR
03:20 5.0 °F 1.8 °F 1022.2 in WNW 11.3 mph 11.7 mph 80 % 0.0 in 0.0 W/m2 CLR
03:25 4.4 °F 1.3 °F 1021.9 in NW 16.7 mph 16.7 mph 80 % 0.0 in 0.0 W/m2 CLR
03:30 5.0 °F 1.8 °F 1021.9 in NW 18.5 mph 18.5 mph 80 % 0.0 in 0.0 W/m2 CLR
03:35 5.0 °F 1.8 °F 1021.9 in NW 14.8 mph 14.8 mph 80 % 0.0 in 0.0 W/m2 CLR
03:40 5.6 °F 2.4 °F 1021.9 in NW 14.8 mph 14.8 mph 80 % 0.0 in 0.0 W/m2 CLR
03:45 5.6 °F 2.4 °F 1021.9 in WNW 19.3 mph 19.3 mph 80 % 0.0 in 0.0 W/m2 CLR
03:50 5.6 °F 2.2 °F 1021.9 in NW 14.8 mph 14.8 mph 79 % 0.0 in 0.0 W/m2 CLR
03:55 5.6 °F 2.2 °F 1021.9 in WNW 12.9 mph 12.9 mph 79 % 0.0 in 0.0 W/m2 CLR
04:00 5.6 °F 2.2 °F 1021.9 in WNW 5.6 mph 5.6 mph 79 % 0.0 in 0.0 W/m2 CLR
04:05 5.0 °F 1.7 °F 1021.9 in WNW 9.3 mph 9.3 mph 79 % 0.0 in 0.0 W/m2 CLR
04:10 5.0 °F 1.7 °F 1021.9 in Calm     79 % 0.0 in 0.0 W/m2 CLR
04:15 5.0 °F 1.7 °F 1021.9 in Calm     79 % 0.0 in 0.0 W/m2 CLR
04:20 5.0 °F 1.7 °F 1021.9 in WNW 9.3 mph 9.3 mph 79 % 0.0 in 0.0 W/m2 CLR
04:25 4.4 °F 1.1 °F 1021.6 in Calm     79 % 0.0 in 0.0 W/m2 CLR
04:30 4.4 °F 1.1 °F 1021.6 in West 5.6 mph 5.6 mph 79 % 0.0 in 0.0 W/m2 CLR
04:35 4.4 °F 1.1 °F 1021.6 in WNW 14.8 mph 14.8 mph 79 % 0.0 in 0.0 W/m2 CLR
04:40 4.4 °F 0.9 °F 1021.6 in WNW 13.0 mph 13.0 mph 78 % 0.0 in 0.0 W/m2 CLR
04:45 5.0 °F 1.5 °F 1021.6 in NW 13.0 mph 13.0 mph 78 % 0.0 in 0.0 W/m2 CLR
04:50 5.0 °F 1.5 °F 1021.2 in Calm     78 % 0.0 in 0.0 W/m2 CLR
04:55 5.0 °F 1.5 °F 1021.2 in WNW 14.8 mph 14.8 mph 78 % 0.0 in 0.0 W/m2 CLR
05:00 5.6 °F 2.0 °F 1021.2 in WNW 11.1 mph 11.1 mph 78 % 0.0 in 0.0 W/m2 CLR
05:05 5.6 °F 1.8 °F 1021.2 in WNW 13.0 mph 13.0 mph 77 % 0.0 in 0.0 W/m2 CLR
05:10 5.0 °F 1.3 °F 1021.2 in WNW 18.5 mph 18.5 mph 77 % 0.0 in 0.0 W/m2 CLR
05:15 5.0 °F 1.3 °F 1021.2 in NW 13.0 mph 13.0 mph 77 % 0.0 in 0.0 W/m2 CLR
05:20 5.0 °F 1.3 °F 1021.2 in WNW 1.9 mph   77 % 0.0 in 0.0 W/m2 CLR
05:25 4.4 °F 0.8 °F 1021.2 in WNW 11.1 mph 11.1 mph 77 % 0.0 in 0.0 W/m2 CLR
05:30 4.4 °F 0.8 °F 1021.2 in NW 9.7 mph 9.7 mph 77 % 0.0 in 0.0 W/m2 CLR
05:35 4.4 °F 0.8 °F 1021.2 in NW 11.1 mph 11.1 mph 77 % 0.0 in 0.0 W/m2 CLR
05:40 4.4 °F 0.8 °F 1021.2 in NW 14.8 mph 14.8 mph 77 % 0.0 in 0.0 W/m2 CLR
05:45 4.4 °F 0.6 °F 1021.2 in WNW 14.8 mph 14.8 mph 76 % 0.0 in 0.0 W/m2 CLR
05:50 5.0 °F 1.1 °F 1021.2 in NW 14.8 mph 14.8 mph 76 % 0.0 in 0.0 W/m2 CLR
05:55 5.0 °F 1.1 °F 1021.2 in NW 13.0 mph 13.0 mph 76 % 0.0 in 0.0 W/m2 CLR
06:00 5.0 °F 1.1 °F 1021.2 in Calm     76 % 0.0 in 0.0 W/m2 CLR
06:05 5.0 °F 1.1 °F 1021.6 in Calm     76 % 0.0 in 0.0 W/m2 CLR
06:10 5.0 °F 1.1 °F 1021.6 in Calm     76 % 0.0 in 0.0 W/m2 CLR
06:15 4.4 °F 0.6 °F 1021.2 in Calm     76 % 0.0 in 0.0 W/m2 CLR
06:20 4.4 °F 0.6 °F 1021.2 in NW 3.7 mph 3.7 mph 76 % 0.0 in 0.0 W/m2 CLR
06:25 4.4 °F 0.8 °F 1021.2 in Calm     77 % 0.0 in 0.0 W/m2 CLR
06:30 4.4 °F 0.8 °F 1021.2 in Calm     77 % 0.0 in 0.0 W/m2 CLR
06:35 4.4 °F 0.9 °F 1021.2 in Calm     78 % 0.0 in 0.0 W/m2 CLR
06:40 4.4 °F 0.8 °F 1021.2 in Calm     77 % 0.0 in 0.0 W/m2 CLR
06:45 5.0 °F 1.3 °F 1021.2 in Calm     77 % 0.0 in 0.0 W/m2 CLR
06:50 5.0 °F 1.3 °F 1021.2 in Calm     77 % 0.0 in 0.0 W/m2 CLR
06:55 5.0 °F 1.5 °F 1021.2 in Calm     78 % 0.0 in 0.0 W/m2 CLR
07:00 5.0 °F 1.5 °F 1020.9 in Calm     78 % 0.0 in 0.0 W/m2 CLR
07:05 4.4 °F 0.9 °F 1020.9 in Calm     78 % 0.0 in 0.0 W/m2 CLR
07:10 4.4 °F 1.1 °F 1020.9 in Calm     79 % 0.0 in 0.0 W/m2 CLR
07:15 4.4 °F 1.1 °F 1020.9 in Calm     79 % 0.0 in 0.0 W/m2 CLR
07:20 4.4 °F 1.1 °F 1020.9 in West 1.9 mph   79 % 0.0 in 0.0 W/m2 CLR
07:25 4.4 °F 1.1 °F 1020.9 in WNW 3.7 mph 3.7 mph 79 % 0.0 in 0.0 W/m2 CLR
07:30 4.4 °F 1.1 °F 1020.9 in West 5.6 mph 5.6 mph 79 % 0.0 in 0.0 W/m2 CLR
07:35 4.4 °F 0.9 °F 1020.9 in Calm     78 % 0.0 in 0.0 W/m2 CLR
07:40 4.4 °F 0.8 °F 1021.2 in Calm     77 % 0.0 in 0.0 W/m2 CLR
07:45 3.9 °F 0.2 °F 1021.2 in Calm     77 % 0.0 in 0.0 W/m2 CLR
07:50 4.4 °F 0.8 °F 1020.9 in Calm     77 % 0.0 in 0.0 W/m2 OVC
07:55 4.4 °F 0.9 °F 1021.2 in Calm     78 % 0.0 in 0.0 W/m2 OVC
08:00 4.4 °F 0.9 °F 1021.2 in Calm     78 % 0.0 in 0.0 W/m2 OVC
08:07 4.4 °F 0.9 °F 1021.2 in West 1.9 mph   78 % 0.0 in 5.0 W/m2 OVC
08:12 4.4 °F 0.9 °F 1021.2 in Calm     78 % 0.0 in 7.0 W/m2 BKN
08:17 4.4 °F 0.9 °F 1020.9 in Calm     78 % 0.0 in 11.0 W/m2 BKN
08:22 4.4 °F 0.9 °F 1020.9 in Calm     78 % 0.0 in 12.0 W/m2 BKN
08:27 5.0 °F 1.5 °F 1020.9 in West 9.3 mph 9.3 mph 78 % 0.0 in 14.0 W/m2 BKN
08:32 5.0 °F 1.5 °F 1020.9 in West 5.6 mph 5.6 mph 78 % 0.0 in 18.0 W/m2 BKN
08:37 5.0 °F 1.5 °F 1020.9 in West 5.6 mph 5.6 mph 78 % 0.0 in 23.0 W/m2 BKN
08:42 5.6 °F 1.8 °F 1021.2 in WNW 3.7 mph 3.7 mph 77 % 0.0 in 35.0 W/m2 BKN
08:47 5.6 °F 1.7 °F 1021.2 in West 4.8 mph 4.8 mph 76 % 0.0 in 40.0 W/m2 BKN
08:52 5.6 °F 1.7 °F 1021.2 in West 8.0 mph 8.0 mph 76 % 0.0 in 37.0 W/m2 BKN
08:57 6.1 °F 2.2 °F 1021.2 in WNW 12.9 mph 12.9 mph 76 % 0.0 in 33.0 W/m2 BKN
09:02 6.7 °F 2.6 °F 1021.2 in WNW 5.6 mph 5.6 mph 75 % 0.0 in 42.0 W/m2 BKN
09:07 7.8 °F 3.6 °F 1021.6 in WNW 14.8 mph 14.8 mph 75 % 0.0 in 49.0 W/m2 BKN
09:12 7.8 °F 3.8 °F 1021.6 in WNW 20.4 mph 20.4 mph 76 % 0.0 in 51.0 W/m2 SCT
09:17 8.3 °F 4.3 °F 1021.2 in NW 16.7 mph 16.7 mph 76 % 0.0 in 54.0 W/m2 SCT
09:22 8.3 °F 4.3 °F 1021.2 in NW 22.2 mph 22.2 mph 76 % 0.0 in 79.0 W/m2 SCT
09:27 8.9 °F 4.9 °F 1021.2 in WNW 18.5 mph 18.5 mph 76 % 0.0 in 70.0 W/m2 FEW
09:33 8.9 °F 4.9 °F 1021.2 in WNW 14.8 mph 14.8 mph 76 % 0.0 in 93.0 W/m2 FEW
09:38 8.9 °F 5.1 °F 1021.2 in NW 18.5 mph 18.5 mph 77 % 0.0 in 95.0 W/m2 CLR
09:43 9.4 °F 5.6 °F 1021.2 in NW 14.8 mph 14.8 mph 77 % 0.0 in 109.0 W/m2 CLR
09:48 9.4 °F 5.6 °F 1021.2 in WNW 20.9 mph 20.9 mph 77 % 0.0 in 135.0 W/m2 CLR
09:53 9.4 °F 5.4 °F 1021.2 in WNW 18.5 mph 18.5 mph 76 % 0.0 in 134.0 W/m2 CLR
09:58 10.0 °F 6.2 °F 1021.6 in NW 18.5 mph 18.5 mph 77 % 0.0 in 155.0 W/m2 CLR
10:03 10.0 °F 5.9 °F 1021.6 in NW 18.5 mph 18.5 mph 76 % 0.0 in 141.0 W/m2 CLR
10:08 10.0 °F 6.2 °F 1021.6 in North 11.3 mph 11.3 mph 77 % 0.0 in 120.0 W/m2 CLR
10:13 10.6 °F 6.7 °F 1021.2 in NW 18.5 mph 18.5 mph 77 % 0.0 in 197.0 W/m2 CLR
10:18 10.6 °F 6.7 °F 1021.6 in NNW 24.1 mph 24.1 mph 77 % 0.0 in 204.0 W/m2 CLR
10:23 11.1 °F 7.1 °F 1021.6 in NW 27.4 mph 27.4 mph 76 % 0.0 in 153.0 W/m2 CLR
10:28 11.1 °F 6.8 °F 1021.6 in NW 18.5 mph 18.5 mph 75 % 0.0 in 169.0 W/m2 CLR
10:33 11.1 °F 6.8 °F 1021.2 in NW 22.2 mph 22.2 mph 75 % 0.0 in 237.0 W/m2 CLR
10:38 11.1 °F 6.7 °F 1021.2 in WNW 18.5 mph 18.5 mph 74 % 0.0 in 172.0 W/m2 CLR
10:43 11.1 °F 6.7 °F 1021.2 in NW 27.8 mph 27.8 mph 74 % 0.0 in 185.0 W/m2 CLR
10:48 11.7 °F 7.2 °F 1021.2 in NW 33.3 mph 33.3 mph 74 % 0.0 in 221.0 W/m2 CLR
10:53 11.7 °F 7.2 °F 1021.2 in NNW 22.2 mph 22.2 mph 74 % 0.0 in 216.0 W/m2 CLR
10:58 11.7 °F 7.2 °F 1021.2 in NNW 20.4 mph 20.4 mph 74 % 0.0 in 216.0 W/m2 CLR
11:03 11.7 °F 7.0 °F 1021.6 in NW 24.1 mph 24.1 mph 73 % 0.0 in 237.0 W/m2 CLR
11:08 12.2 °F 7.3 °F 1021.6 in NNW 31.5 mph 31.5 mph 72 % 0.0 in 258.0 W/m2 CLR
11:13 12.2 °F 7.5 °F 1021.2 in NNW 25.7 mph 25.7 mph 73 % 0.0 in 193.0 W/m2 CLR
11:18 12.8 °F 7.8 °F 1021.2 in NNW 24.1 mph 24.1 mph 72 % 0.0 in 482.0 W/m2 CLR
11:23 12.8 °F 7.8 °F 1021.2 in NNW 27.8 mph 27.8 mph 72 % 0.0 in 547.0 W/m2 CLR
11:28 12.8 °F 7.8 °F 1021.2 in NW 24.1 mph 24.1 mph 72 % 0.0 in 547.0 W/m2 CLR
11:33 13.3 °F 8.2 °F 1021.2 in NW 27.8 mph 27.8 mph 71 % 0.0 in 223.0 W/m2 CLR
11:38 13.3 °F 8.2 °F 1021.2 in NW 25.9 mph 25.9 mph 71 % 0.0 in 251.0 W/m2 CLR
11:43 13.3 °F 8.0 °F 1021.2 in North 31.5 mph 31.5 mph 70 % 0.0 in 320.0 W/m2 CLR
11:48 13.3 °F 8.0 °F 1021.2 in NW 20.4 mph 20.4 mph 70 % 0.0 in 248.0 W/m2 CLR
11:53 13.3 °F 7.8 °F 1021.2 in WNW 27.8 mph 27.8 mph 69 % 0.0 in 197.0 W/m2 CLR
11:58 13.3 °F 7.6 °F 1021.2 in NNW 37.0 mph 37.0 mph 68 % 0.0 in 768.0 W/m2 CLR
12:03 13.9 °F 7.8 °F 1021.2 in NW 35.2 mph 35.2 mph 67 % 0.0 in 302.0 W/m2 CLR
12:08 13.9 °F 8.3 °F 1021.2 in North 22.2 mph 22.2 mph 69 % 0.0 in 536.0 W/m2 CLR
12:13 13.9 °F 7.8 °F 1021.2 in North 31.5 mph 31.5 mph 67 % 0.0 in 696.0 W/m2 CLR
12:18 14.4 °F 8.6 °F 1020.9 in NW 25.9 mph 25.9 mph 68 % 0.0 in 703.0 W/m2 CLR
12:23 15.0 °F 8.7 °F 1020.9 in NNW 35.2 mph 35.2 mph 66 % 0.0 in 728.0 W/m2 CLR
12:28 15.0 °F 8.9 °F 1020.9 in NNW 24.1 mph 24.1 mph 67 % 0.0 in 759.0 W/m2 CLR
12:33 15.0 °F 8.7 °F 1020.9 in NNW 27.8 mph 27.8 mph 66 % 0.0 in 341.0 W/m2 CLR
12:38 15.6 °F 9.0 °F 1020.9 in NW 33.8 mph 33.8 mph 65 % 0.0 in 714.0 W/m2 CLR
12:43 15.0 °F 8.7 °F 1020.5 in WNW 31.5 mph 31.5 mph 66 % 0.0 in 694.0 W/m2 CLR
12:48 15.6 °F 9.0 °F 1020.5 in NW 22.2 mph 22.2 mph 65 % 0.0 in 668.0 W/m2 CLR
12:53 15.6 °F 9.0 °F 1020.5 in NW 29.6 mph 29.6 mph 65 % 0.0 in 216.0 W/m2 CLR
12:58 15.0 °F 8.4 °F 1020.5 in NW 20.4 mph 20.4 mph 65 % 0.0 in 693.0 W/m2 CLR
13:03 15.6 °F 8.8 °F 1020.2 in NW 29.6 mph 29.6 mph 64 % 0.0 in 659.0 W/m2 CLR
13:08 16.1 °F 9.3 °F 1020.2 in NW 29.6 mph 29.6 mph 64 % 0.0 in 619.0 W/m2 CLR
13:13 16.1 °F 9.1 °F 1019.9 in NW 31.5 mph 31.5 mph 63 % 0.0 in 619.0 W/m2 CLR
13:14 16.1 °F 9.1 °F 1019.9 in NNW 31.5 mph 31.5 mph 63 % 0.0 in 615.0 W/m2 CLR
13:19 16.7 °F 9.6 °F 1019.9 in NNW 35.2 mph 35.2 mph 63 % 0.0 in 624.0 W/m2 CLR
13:24 16.1 °F 9.1 °F 1019.9 in NNW 25.9 mph 25.9 mph 63 % 0.0 in 645.0 W/m2 CLR
13:29 16.7 °F 9.6 °F 1019.9 in North 31.5 mph 31.5 mph 63 % 0.0 in 721.0 W/m2 CLR
13:34 17.2 °F 9.9 °F 1019.5 in WNW 20.4 mph 20.4 mph 62 % 0.0 in 701.0 W/m2 CLR
13:39 17.2 °F 9.4 °F 1019.9 in North 31.5 mph 31.5 mph 60 % 0.0 in 163.0 W/m2 CLR
13:44 16.7 °F 9.1 °F 1019.5 in NW 22.2 mph 22.2 mph 61 % 0.0 in 244.0 W/m2 CLR
13:49 16.7 °F 9.1 °F 1019.5 in North 29.0 mph 29.0 mph 61 % 0.0 in 134.0 W/m2 CLR
13:54 16.1 °F 8.8 °F 1019.5 in NNW 37.0 mph 37.0 mph 62 % 0.0 in 677.0 W/m2 CLR
13:59 17.2 °F 9.9 °F 1019.5 in NNW 33.3 mph 35.1 mph 62 % 0.0 in 664.0 W/m2 CLR
14:04 17.2 °F 9.6 °F 1019.5 in NNE 37.0 mph 37.0 mph 61 % 0.0 in 677.0 W/m2 CLR
14:09 16.7 °F 9.1 °F 1019.5 in North 35.4 mph 35.4 mph 61 % 0.0 in 703.0 W/m2 CLR
14:14 17.2 °F 9.6 °F 1019.5 in NNW 40.7 mph 40.7 mph 61 % 0.0 in 271.0 W/m2 CLR
14:19 17.2 °F 9.9 °F 1019.5 in NNW 33.8 mph 33.8 mph 62 % 0.0 in 796.0 W/m2 CLR
14:24 17.2 °F 9.4 °F 1019.2 in NNW 29.0 mph 29.0 mph 60 % 0.0 in 378.0 W/m2 CLR
14:29 16.1 °F 8.6 °F 1019.2 in NNW 35.2 mph 35.2 mph 61 % 0.0 in 294.0 W/m2 CLR
14:34 16.7 °F 9.1 °F 1019.2 in NNW 31.5 mph 31.5 mph 61 % 0.0 in 294.0 W/m2 CLR
14:39 17.2 °F 9.6 °F 1019.2 in North 32.2 mph 32.2 mph 61 % 0.0 in 236.0 W/m2 CLR
14:45 16.7 °F 9.1 °F 1018.8 in NNW 31.5 mph 31.5 mph 61 % 0.0 in 186.0 W/m2 CLR
14:49 16.7 °F 9.1 °F 1018.8 in North 32.2 mph 32.2 mph 61 % 0.0 in 554.0 W/m2 CLR
14:55 17.2 °F 9.1 °F 1018.8 in NNW 32.2 mph 32.2 mph 59 % 0.0 in 538.0 W/m2 CLR
15:00 17.2 °F 9.1 °F 1018.8 in NW 27.8 mph 27.8 mph 59 % 0.0 in 287.0 W/m2 CLR
15:05 17.2 °F 9.1 °F 1018.8 in NNW 31.5 mph 31.5 mph 59 % 0.0 in 608.0 W/m2 CLR
15:10 16.7 °F 8.6 °F 1018.8 in North 33.3 mph 33.3 mph 59 % 0.0 in 185.0 W/m2 CLR
15:15 16.1 °F 8.3 °F 1018.8 in North 24.1 mph 24.1 mph 60 % 0.0 in 135.0 W/m2 CLR
15:20 16.1 °F 8.3 °F 1018.8 in NW 24.1 mph 24.1 mph 60 % 0.0 in 107.0 W/m2 CLR
15:25 15.6 °F 7.8 °F 1018.8 in NNW 31.5 mph 31.5 mph 60 % 0.0 in 114.0 W/m2 CLR
15:30 15.6 °F 7.8 °F 1018.8 in NNW 27.4 mph 27.4 mph 60 % 0.0 in 146.0 W/m2 CLR
15:35 15.6 °F 7.8 °F 1018.8 in NW 31.5 mph 31.5 mph 60 % 0.0 in 214.0 W/m2 CLR
15:40 16.1 °F 8.3 °F 1018.5 in NW 25.9 mph 25.9 mph 60 % 0.0 in 606.0 W/m2 CLR
15:45 17.2 °F 8.9 °F 1018.5 in NW 29.6 mph 29.6 mph 58 % 0.0 in 288.0 W/m2 CLR
15:50 16.7 °F 8.3 °F 1018.8 in NW 24.1 mph 24.1 mph 58 % 0.0 in 200.0 W/m2 CLR
15:55 16.1 °F 7.8 °F 1018.8 in NNW 35.2 mph 35.2 mph 58 % 0.0 in 178.0 W/m2 CLR
16:00 16.1 °F 8.1 °F 1018.8 in North 24.1 mph 24.1 mph 59 % 0.0 in 162.0 W/m2 CLR
16:05 16.1 °F 8.1 °F 1018.8 in North 31.5 mph 31.5 mph 59 % 0.0 in 135.0 W/m2 CLR
16:10 16.1 °F 7.8 °F 1018.8 in NNW 25.9 mph 25.9 mph 58 % 0.0 in 139.0 W/m2 CLR
16:15 15.6 °F 7.6 °F 1018.8 in NNW 27.8 mph 27.8 mph 59 % 0.0 in 174.0 W/m2 CLR
16:20 15.6 °F 7.8 °F 1018.5 in NNW 30.6 mph 30.6 mph 60 % 0.0 in 359.0 W/m2 CLR
16:25 16.1 °F 7.6 °F 1018.8 in NNW 37.0 mph 37.0 mph 57 % 0.0 in 292.0 W/m2 CLR
16:30 16.1 °F 7.6 °F 1018.8 in NNW 32.2 mph 32.2 mph 57 % 0.0 in 151.0 W/m2 CLR
16:35 15.6 °F 7.3 °F 1018.8 in North 24.1 mph 24.1 mph 58 % 0.0 in 148.0 W/m2 CLR
16:40 15.6 °F 7.6 °F 1018.5 in NW 20.4 mph 20.4 mph 59 % 0.0 in 167.0 W/m2 CLR
16:45 15.6 °F 7.6 °F 1018.8 in NW 22.2 mph 22.2 mph 59 % 0.0 in 127.0 W/m2 CLR
16:50 15.6 °F 7.6 °F 1018.5 in NNW 31.5 mph 31.5 mph 59 % 0.0 in 105.0 W/m2 CLR
16:55 15.6 °F 7.6 °F 1018.8 in NW 14.8 mph 14.8 mph 59 % 0.0 in 107.0 W/m2 CLR
17:00 15.6 °F 7.6 °F 1018.5 in NW 29.6 mph 29.6 mph 59 % 0.0 in 100.0 W/m2 CLR
17:05 15.0 °F 7.1 °F 1018.8 in NNW 18.5 mph 18.5 mph 59 % 0.0 in 83.0 W/m2 CLR
17:10 15.0 °F 7.1 °F 1018.8 in NNW 33.3 mph 33.3 mph 59 % 0.0 in 46.0 W/m2 FEW
17:15 15.0 °F 7.1 °F 1018.8 in NNW 25.9 mph 25.9 mph 59 % 0.0 in 63.0 W/m2 SCT
17:20 14.4 °F 6.8 °F 1018.8 in NW 22.2 mph 22.2 mph 60 % 0.0 in 60.0 W/m2 SCT
17:25 14.4 °F 6.8 °F 1018.8 in NW 24.1 mph 24.1 mph 60 % 0.0 in 56.0 W/m2 SCT
17:30 14.4 °F 6.8 °F 1018.8 in NNW 24.1 mph 24.1 mph 60 % 0.0 in 54.0 W/m2 SCT
17:35 14.4 °F 6.8 °F 1018.8 in NW 24.1 mph 24.1 mph 60 % 0.0 in 32.0 W/m2 BKN
17:40 14.4 °F 6.8 °F 1018.8 in NNW 24.1 mph 24.1 mph 60 % 0.0 in 23.0 W/m2 BKN
17:45 13.9 °F 6.5 °F 1019.2 in North 18.5 mph 18.5 mph 61 % 0.0 in 21.0 W/m2 BKN
17:50 13.9 °F 6.5 °F 1019.2 in NNW 33.8 mph 33.8 mph 61 % 0.0 in 23.0 W/m2 BKN
17:55 13.9 °F 6.5 °F 1019.2 in NW 27.8 mph 27.8 mph 61 % 0.0 in 23.0 W/m2 BKN
18:00 13.3 °F 6.4 °F 1019.2 in NNW 33.3 mph 33.3 mph 63 % 0.0 in 21.0 W/m2 BKN
18:05 13.3 °F 6.4 °F 1019.2 in NW 24.1 mph 24.1 mph 63 % 0.0 in 18.0 W/m2 BKN
18:10 13.3 °F 6.7 °F 1019.2 in NW 25.9 mph 25.9 mph 64 % 0.0 in 12.0 W/m2 BKN
18:15 12.8 °F 6.1 °F 1019.5 in WNW 18.5 mph 18.5 mph 64 % 0.0 in 7.0 W/m2 BKN
18:20 12.8 °F 6.3 °F 1019.5 in NW 31.5 mph 31.5 mph 65 % 0.0 in 5.0 W/m2 OVC
18:25 12.8 °F 6.6 °F 1019.5 in NW 22.2 mph 22.2 mph 66 % 0.0 in 0.0 W/m2 OVC
18:30 12.8 °F 6.6 °F 1019.9 in NW 20.4 mph 20.4 mph 66 % 0.0 in 0.0 W/m2 OVC
18:35 12.8 °F 6.6 °F 1019.9 in NW 24.1 mph 24.1 mph 66 % 0.0 in 0.0 W/m2 OVC
18:40 12.8 °F 6.6 °F 1019.9 in NW 18.5 mph 18.5 mph 66 % 0.0 in 0.0 W/m2 CLR
18:45 12.8 °F 6.6 °F 1019.9 in NW 31.5 mph 31.5 mph 66 % 0.0 in 0.0 W/m2 CLR
18:50 12.8 °F 6.6 °F 1019.9 in WNW 24.1 mph 24.1 mph 66 % 0.0 in 0.0 W/m2 CLR
18:55 12.8 °F 6.6 °F 1019.9 in WNW 22.5 mph 22.5 mph 66 % 0.0 in 0.0 W/m2 CLR
19:00 12.8 °F 6.6 °F 1019.9 in NW 24.1 mph 24.1 mph 66 % 0.0 in 0.0 W/m2 CLR
19:05 12.2 °F 6.1 °F 1019.9 in NW 24.1 mph 24.1 mph 66 % 0.0 in 0.0 W/m2 CLR
19:10 12.2 °F 6.1 °F 1019.9 in NW 22.2 mph 22.2 mph 66 % 0.0 in 0.0 W/m2 CLR
19:15 12.2 °F 6.1 °F 1019.9 in WNW 24.1 mph 24.1 mph 66 % 0.0 in 0.0 W/m2 CLR
19:20 12.2 °F 6.1 °F 1019.9 in NW 20.4 mph 20.4 mph 66 % 0.0 in 0.0 W/m2 CLR
19:25 12.2 °F 6.1 °F 1019.9 in WNW 22.2 mph 22.2 mph 66 % 0.0 in 0.0 W/m2 CLR
19:30 12.2 °F 6.3 °F 1019.5 in NW 24.1 mph 24.1 mph 67 % 0.0 in 0.0 W/m2 CLR
19:35 12.2 °F 6.1 °F 1019.9 in WNW 22.5 mph 22.5 mph 66 % 0.0 in 0.0 W/m2 CLR
19:40 12.2 °F 6.1 °F 1019.9 in NW 24.1 mph 24.1 mph 66 % 0.0 in 0.0 W/m2 CLR
19:45 12.2 °F 6.1 °F 1019.9 in NW 18.5 mph 18.5 mph 66 % 0.0 in 0.0 W/m2 CLR
19:50 11.7 °F 5.7 °F 1019.5 in WNW 16.1 mph 16.1 mph 67 % 0.0 in 0.0 W/m2 CLR
19:55 11.7 °F 5.7 °F 1019.5 in West 16.7 mph 16.7 mph 67 % 0.0 in 0.0 W/m2 CLR
20:00 11.7 °F 5.9 °F 1019.2 in West 20.4 mph 20.4 mph 68 % 0.0 in 0.0 W/m2 CLR
20:05 11.7 °F 6.2 °F 1019.2 in West 14.5 mph 14.5 mph 69 % 0.0 in 0.0 W/m2 CLR
20:10 11.1 °F 5.6 °F 1019.2 in NW 18.5 mph 18.5 mph 69 % 0.0 in 0.0 W/m2 CLR
20:15 11.1 °F 5.6 °F 1019.2 in WNW 13.0 mph 13.0 mph 69 % 0.0 in 0.0 W/m2 CLR
20:20 11.1 °F 5.8 °F 1019.2 in NW 14.8 mph 14.8 mph 70 % 0.0 in 0.0 W/m2 CLR
20:25 11.1 °F 5.8 °F 1019.2 in Calm     70 % 0.0 in 0.0 W/m2 CLR
20:30 11.1 °F 6.1 °F 1019.2 in Calm     71 % 0.0 in 0.0 W/m2 CLR
20:35 10.6 °F 5.5 °F 1019.2 in NW 13.0 mph 13.0 mph 71 % 0.0 in 0.0 W/m2 CLR
20:40 10.6 °F 5.3 °F 1018.8 in NW 18.5 mph 18.5 mph 70 % 0.0 in 0.0 W/m2 CLR
20:45 10.6 °F 5.3 °F 1018.8 in NW 14.8 mph 14.8 mph 70 % 0.0 in 0.0 W/m2 CLR
20:50 10.6 °F 5.3 °F 1019.2 in NW 16.7 mph 16.7 mph 70 % 0.0 in 0.0 W/m2 CLR
20:55 11.1 °F 5.8 °F 1019.5 in NW 13.0 mph 13.0 mph 70 % 0.0 in 0.0 W/m2 CLR
20:57 11.1 °F 5.8 °F 1019.5 in NW 11.1 mph 11.1 mph 70 % 0.0 in 0.0 W/m2 CLR
21:02 11.1 °F 6.1 °F 1019.5 in NW 11.1 mph 11.1 mph 71 % 0.0 in 0.0 W/m2 CLR
21:07 11.1 °F 6.1 °F 1019.5 in NW 14.8 mph 14.8 mph 71 % 0.0 in 0.0 W/m2 CLR
21:12 11.1 °F 6.3 °F 1019.5 in NW 11.1 mph 11.1 mph 72 % 0.0 in 0.0 W/m2 CLR
21:17 11.1 °F 6.4 °F 1019.5 in NW 11.1 mph 11.1 mph 73 % 0.0 in 0.0 W/m2 CLR
21:22 11.1 °F 6.4 °F 1019.5 in NNW 12.9 mph 12.9 mph 73 % 0.0 in 0.0 W/m2 CLR
21:27 10.6 °F 5.9 °F 1019.5 in NW 11.1 mph 11.1 mph 73 % 0.0 in 0.0 W/m2 CLR
21:32 10.6 °F 5.9 °F 1019.2 in NW 9.3 mph 9.3 mph 73 % 0.0 in 0.0 W/m2 CLR
21:37 10.6 °F 5.9 °F 1019.5 in NW 11.1 mph 11.1 mph 73 % 0.0 in 0.0 W/m2 CLR
21:42 10.6 °F 5.9 °F 1019.5 in NW 13.0 mph 13.0 mph 73 % 0.0 in 0.0 W/m2 CLR
21:47 10.6 °F 5.9 °F 1019.5 in NW 13.0 mph 13.0 mph 73 % 0.0 in 0.0 W/m2 CLR
21:52 10.6 °F 5.9 °F 1019.5 in NW 13.0 mph 13.0 mph 73 % 0.0 in 0.0 W/m2 CLR
21:57 10.6 °F 5.9 °F 1019.5 in NW 13.0 mph 13.0 mph 73 % 0.0 in 0.0 W/m2 CLR
22:03 10.0 °F 5.2 °F 1019.5 in NW 14.8 mph 14.8 mph 72 % 0.0 in 0.0 W/m2 CLR
22:08 10.6 °F 5.9 °F 1019.5 in NW 13.0 mph 13.0 mph 73 % 0.0 in 0.0 W/m2 CLR
22:13 10.6 °F 5.9 °F 1019.5 in NW 19.3 mph 19.3 mph 73 % 0.0 in 0.0 W/m2 CLR
22:18 11.1 °F 6.4 °F 1019.9 in NW 18.5 mph 18.5 mph 73 % 0.0 in 0.0 W/m2 CLR
22:23 11.1 °F 6.4 °F 1019.9 in NW 16.7 mph 16.7 mph 73 % 0.0 in 0.0 W/m2 CLR
22:28 10.6 °F 5.9 °F 1019.9 in NW 16.7 mph 16.7 mph 73 % 0.0 in 0.0 W/m2 CLR
22:33 10.6 °F 6.1 °F 1019.9 in NNW 16.7 mph 16.7 mph 74 % 0.0 in 0.0 W/m2 CLR
22:38 10.6 °F 6.1 °F 1019.9 in NW 22.2 mph 22.2 mph 74 % 0.0 in 0.0 W/m2 CLR
22:43 10.6 °F 6.1 °F 1019.9 in NW 22.2 mph 22.2 mph 74 % 0.0 in 0.0 W/m2 CLR
22:48 10.6 °F 6.3 °F 1019.9 in NW 24.1 mph 24.1 mph 75 % 0.0 in 0.0 W/m2 CLR
22:53 10.6 °F 6.3 °F 1019.9 in NNW 27.8 mph 27.8 mph 75 % 0.0 in 0.0 W/m2 CLR
22:58 10.6 °F 6.7 °F 1019.9 in NNW 31.5 mph 31.5 mph 77 % 0.0 in 0.0 W/m2 CLR
23:03 10.6 °F 6.9 °F 1019.9 in NNW 29.6 mph 29.6 mph 78 % 0.0 in 0.0 W/m2 CLR
23:08 10.6 °F 6.9 °F 1019.9 in NW 24.1 mph 24.1 mph 78 % 0.0 in 0.0 W/m2 CLR
23:13 10.6 °F 6.9 °F 1019.9 in NNW 18.5 mph 18.5 mph 78 % 0.0 in 0.0 W/m2 CLR
23:18 10.6 °F 7.1 °F 1019.9 in NNW 33.3 mph 33.3 mph 79 % 0.0 in 0.0 W/m2 CLR
23:23 10.6 °F 7.1 °F 1019.9 in NW 30.6 mph 30.6 mph 79 % 0.0 in 0.0 W/m2 CLR
23:28 10.6 °F 7.1 °F 1019.9 in NNW 33.3 mph 33.3 mph 79 % 0.0 in 0.0 W/m2 CLR
23:33 10.6 °F 7.2 °F 1019.9 in North 31.5 mph 31.5 mph 80 % 0.0 in 0.0 W/m2 CLR
23:38 10.6 °F 7.2 °F 1019.9 in NNW 30.6 mph 30.6 mph 80 % 0.0 in 0.0 W/m2 CLR
23:43 10.6 °F 7.2 °F 1019.9 in NW 27.8 mph 27.8 mph 80 % 0.0 in 0.0 W/m2 CLR
23:48 10.0 °F 6.7 °F 1019.9 in NNW 31.5 mph 31.5 mph 80 % 0.0 in 0.0 W/m2 CLR
23:53 10.0 °F 6.7 °F 1019.9 in NNW 38.9 mph 38.9 mph 80 % 0.0 in 0.0 W/m2 CLR
23:58 10.0 °F 6.7 °F 1019.9 in NNW 33.3 mph 33.3 mph 80 % 0.0 in 0.0 W/m2 CLR
Lo Temps de Massalio
Compliments of Weather Underground - 1.25 mb